createdAt,value
2018-12-24T00:03:17.125Z,95222.06
2018-12-24T00:06:06.865Z,95213.77
2018-12-24T00:08:57.483Z,95207.45
2018-12-24T00:11:47.046Z,95198.75
2018-12-24T00:14:36.767Z,95192.44
2018-12-24T00:17:26.241Z,95191.14
2018-12-24T00:20:15.706Z,95206.36
2018-12-24T00:23:05.967Z,95192.78
2018-12-24T00:25:55.454Z,95197.95
2018-12-24T00:28:44.914Z,95173.95
2018-12-24T00:31:34.762Z,95163.91
2018-12-24T00:34:25.071Z,95141.21
2018-12-24T00:37:42.367Z,95162.94
2018-12-24T00:40:32.619Z,95153.23
2018-12-24T00:43:22.345Z,95149.02
2018-12-24T00:46:12.353Z,95143.11
2018-12-24T00:49:02.278Z,95138.41
2018-12-24T00:51:52.052Z,95123.69
2018-12-24T00:54:42.571Z,95146.75
2018-12-24T00:57:33.048Z,95136.00
2018-12-24T01:00:41.963Z,95125.59
2018-12-24T01:03:52.014Z,95136.94
2018-12-24T01:06:41.978Z,95135.83
2018-12-24T01:09:31.481Z,95126.11
2018-12-24T01:12:24.621Z,95130.42
2018-12-24T01:15:12.824Z,95114.09
2018-12-24T01:18:03.857Z,95136.63
2018-12-24T01:20:54.080Z,95128.41
2018-12-24T01:23:43.786Z,95104.40
2018-12-24T01:26:33.912Z,95105.87
2018-12-24T01:29:24.059Z,95108.88
2018-12-24T01:32:14.295Z,95085.73
2018-12-24T01:35:04.691Z,95107.17
2018-12-24T01:37:54.448Z,95069.61
2018-12-24T01:40:44.262Z,95070.81
2018-12-24T01:43:34.260Z,95080.63
2018-12-24T01:46:24.266Z,95093.85
2018-12-24T01:49:15.002Z,95051.88
2018-12-24T01:52:04.752Z,95074.61
2018-12-24T01:54:54.912Z,95075.55
2018-12-24T01:57:44.900Z,95078.02
2018-12-24T02:00:34.661Z,95076.12
2018-12-24T02:03:24.916Z,95059.89
2018-12-24T02:06:14.909Z,95060.41
2018-12-24T02:12:21.156Z,95054.10
2018-12-24T02:15:10.894Z,95051.00
2018-12-24T02:18:00.579Z,95026.74
2018-12-24T02:20:50.515Z,95008.42
2018-12-24T02:23:40.752Z,94983.91
2018-12-24T02:26:30.506Z,94989.71
2018-12-24T02:29:20.997Z,95011.94
2018-12-24T02:32:10.710Z,95014.74
2018-12-24T02:35:00.784Z,95013.93
2018-12-24T02:37:50.528Z,95003.61
2018-12-24T02:40:41.355Z,94990.80
2018-12-24T02:43:30.812Z,94983.67
2018-12-24T02:46:21.235Z,94982.88
2018-12-24T02:49:11.321Z,94983.08
2018-12-24T02:52:00.792Z,94948.13
2018-12-24T02:54:50.791Z,94953.45
2018-12-24T02:57:40.870Z,94966.17
2018-12-24T03:00:30.826Z,94959.75
2018-12-24T03:03:20.556Z,94951.14
2018-12-24T03:06:10.427Z,94953.66
2018-12-24T03:09:00.150Z,94977.78
2018-12-24T03:11:50.469Z,94941.63
2018-12-24T03:14:40.687Z,94951.95
2018-12-24T03:17:30.889Z,94939.83
2018-12-24T03:20:20.423Z,94947.05
2018-12-24T03:23:11.215Z,94954.26
2018-12-24T03:26:00.932Z,94947.34
2018-12-24T03:28:50.900Z,94954.67
2018-12-24T03:31:40.602Z,94942.34
2018-12-24T03:34:31.814Z,94981.88
2018-12-24T03:37:22.034Z,94987.95
2018-12-24T03:40:11.855Z,94992.66
2018-12-24T03:43:12.486Z,95003.55
2018-12-24T03:45:56.250Z,95053.23
2018-12-24T03:48:45.984Z,95217.81
2018-12-24T03:51:36.043Z,95253.95
2018-12-24T03:54:25.514Z,95233.66
2018-12-24T03:57:16.384Z,95232.62
2018-12-24T04:00:07.151Z,95233.59
2018-12-24T04:02:56.589Z,95233.10
2018-12-24T04:05:46.063Z,95244.22
2018-12-24T04:08:36.315Z,95244.87
2018-12-24T04:11:26.026Z,95250.86
2018-12-24T04:14:15.765Z,95252.16
2018-12-24T04:17:05.218Z,95242.86
2018-12-24T04:19:55.419Z,95263.78
2018-12-24T04:22:45.389Z,95275.39
2018-12-24T04:25:40.436Z,95280.91
2018-12-24T04:28:30.238Z,95283.48
2018-12-24T04:31:19.897Z,95291.86
2018-12-24T04:34:09.601Z,95295.44
2018-12-24T04:36:59.315Z,95305.11
2018-12-24T04:39:49.085Z,95315.27
2018-12-24T04:42:38.527Z,95323.17
2018-12-24T04:45:27.997Z,95332.88
2018-12-24T04:48:17.948Z,95337.05
2018-12-24T04:51:08.374Z,95342.56
2018-12-24T04:53:57.822Z,95358.69
2018-12-24T04:56:47.284Z,95376.77
2018-12-24T04:59:36.744Z,95399.83
2018-12-24T05:02:26.203Z,95408.22
2018-12-24T05:05:17.098Z,95420.97
2018-12-24T05:08:06.582Z,95426.61
2018-12-24T05:10:56.397Z,95436.26
2018-12-24T05:13:46.259Z,95445.48
2018-12-24T05:16:35.729Z,95458.68
2018-12-24T05:19:25.699Z,95462.05
2018-12-24T05:22:15.978Z,95492.23
2018-12-24T05:25:05.571Z,95505.05
2018-12-24T05:27:55.256Z,95513.58
2018-12-24T05:30:44.983Z,95517.23
2018-12-24T05:33:34.665Z,95531.89
2018-12-24T05:36:24.664Z,95554.07
2018-12-24T05:39:14.116Z,95556.52
2018-12-24T05:42:03.572Z,95579.38
2018-12-24T05:44:53.257Z,95599.99
2018-12-24T05:47:42.715Z,95622.73
2018-12-24T05:50:32.407Z,95641.11
2018-12-24T05:53:22.087Z,95644.30
2018-12-24T05:56:11.809Z,95659.49
2018-12-24T05:59:01.535Z,95675.23
2018-12-24T06:01:51.718Z,95683.48
2018-12-24T06:04:41.396Z,95689.92
2018-12-24T06:07:31.457Z,95713.11
2018-12-24T06:10:20.886Z,95732.69
2018-12-24T06:13:10.578Z,95745.23
2018-12-24T06:16:00.849Z,95759.60
2018-12-24T06:18:50.294Z,95787.83
2018-12-24T06:21:39.992Z,95797.92
2018-12-24T06:24:29.796Z,95805.12
2018-12-24T06:27:19.254Z,95809.70
2018-12-24T06:30:09.761Z,95825.48
2018-12-24T06:32:59.461Z,95842.56
2018-12-24T06:36:08.776Z,95853.94
2018-12-24T06:38:58.681Z,95853.94
2018-12-24T06:41:48.479Z,95880.23
2018-12-24T06:44:38.249Z,95893.29
2018-12-24T06:47:27.964Z,95908.16
2018-12-24T06:50:17.669Z,95914.11
2018-12-24T06:53:08.141Z,95927.77
2018-12-24T06:55:58.083Z,95937.45
2018-12-24T06:58:47.565Z,95962.98
2018-12-24T07:01:38.102Z,95984.11
2018-12-24T07:04:28.213Z,95993.75
2018-12-24T07:07:18.130Z,95994.98
2018-12-24T07:10:07.744Z,96001.98
2018-12-24T07:12:57.948Z,96001.60
2018-12-24T07:15:50.509Z,96012.02
2018-12-24T07:18:41.009Z,96024.66
2018-12-24T07:21:31.291Z,96025.64
2018-12-24T07:24:21.708Z,96037.36
2018-12-24T07:27:12.068Z,96030.59
2018-12-24T07:30:01.910Z,96045.25
2018-12-24T07:32:52.208Z,96059.76
2018-12-24T07:35:42.168Z,96069.75
2018-12-24T07:38:32.973Z,96099.14
2018-12-24T07:41:24.013Z,96099.14
2018-12-24T07:44:13.805Z,96093.60
2018-12-24T07:47:22.854Z,96099.98
2018-12-24T07:50:12.310Z,96117.16
2018-12-24T07:53:02.598Z,96140.02
2018-12-24T07:55:52.344Z,96132.81
2018-12-24T07:58:42.358Z,96156.77
2018-12-24T08:01:33.105Z,96171.61
2018-12-24T08:04:21.891Z,96182.17
2018-12-24T08:07:32.627Z,96183.80
2018-12-24T08:10:41.700Z,96198.75
2018-12-24T08:13:31.170Z,96210.61
2018-12-24T08:16:20.937Z,96246.66
2018-12-24T08:19:26.005Z,96233.59
2018-12-24T08:22:02.596Z,96236.91
2018-12-24T08:24:52.632Z,96239.61
2018-12-24T08:27:42.080Z,96252.14
2018-12-24T08:30:31.809Z,96243.42
2018-12-24T08:33:21.579Z,96247.95
2018-12-24T08:36:11.076Z,96260.64
2018-12-24T08:39:01.000Z,96266.56
2018-12-24T08:41:50.692Z,96269.27
2018-12-24T08:44:41.855Z,96273.53
2018-12-24T08:47:31.862Z,96280.58
2018-12-24T08:50:21.568Z,96289.73
2018-12-24T08:53:12.847Z,96292.84
2018-12-24T08:56:04.128Z,96295.84
2018-12-24T08:58:53.707Z,96312.37
2018-12-24T09:01:43.168Z,96315.36
2018-12-24T09:05:15.234Z,96320.04
2018-12-24T09:08:05.029Z,96325.66
2018-12-24T09:10:54.553Z,96335.16
2018-12-24T09:13:44.257Z,96330.47
2018-12-24T09:16:34.011Z,96350.70
2018-12-24T09:19:23.692Z,96353.45
2018-12-24T09:22:14.542Z,96364.92
2018-12-24T09:25:04.697Z,96371.02
2018-12-24T09:27:55.623Z,96383.50
2018-12-24T09:30:51.870Z,96379.86
2018-12-24T09:33:44.746Z,96385.35
2018-12-24T09:36:34.699Z,96386.98
2018-12-24T09:39:24.127Z,96388.87
2018-12-24T09:42:28.177Z,96419.02
2018-12-24T09:45:05.806Z,96401.05
2018-12-24T09:47:55.877Z,96411.57
2018-12-24T09:51:05.315Z,96412.86
2018-12-24T09:53:55.880Z,96416.73
2018-12-24T09:56:45.602Z,96423.47
2018-12-24T09:59:35.942Z,96409.00
2018-12-24T10:02:31.852Z,96400.75
2018-12-24T10:05:23.493Z,96416.21
2018-12-24T10:08:16.720Z,96419.22
2018-12-24T10:11:06.455Z,96434.42
2018-12-24T10:13:56.947Z,96431.85
2018-12-24T10:16:46.909Z,96440.09
2018-12-24T10:19:36.608Z,96441.03
2018-12-24T10:22:25.385Z,96448.88
2018-12-24T10:25:15.125Z,96451.39
2018-12-24T10:28:24.014Z,96452.03
2018-12-24T10:31:14.546Z,96451.89
2018-12-24T10:34:04.784Z,96457.52
2018-12-24T10:36:54.481Z,96463.45
2018-12-24T10:39:44.389Z,96458.72
2018-12-24T10:42:34.348Z,96467.48
2018-12-24T10:45:24.293Z,96467.95
2018-12-24T10:51:29.928Z,96467.39
2018-12-24T10:54:19.835Z,96471.57
2018-12-24T10:57:09.497Z,96475.02
2018-12-24T10:59:59.615Z,96465.36
2018-12-24T11:02:49.752Z,96468.48
2018-12-24T11:05:40.417Z,96466.42
2018-12-24T11:08:31.400Z,96471.53
2018-12-24T11:11:21.236Z,96473.72
2018-12-24T11:14:11.818Z,96477.03
2018-12-24T11:17:02.049Z,96478.05
2018-12-24T11:19:53.717Z,96480.81
2018-12-24T11:22:44.063Z,96481.33
2018-12-24T11:25:34.307Z,96481.75
2018-12-24T11:28:23.790Z,96477.33
2018-12-24T11:31:13.624Z,96478.19
2018-12-24T11:34:03.342Z,96473.88
2018-12-24T11:36:53.532Z,96469.30
2018-12-24T11:39:43.787Z,96484.98
2018-12-24T11:42:33.711Z,96479.00
2018-12-24T11:45:23.429Z,96478.45
2018-12-24T11:48:14.548Z,96472.95
2018-12-24T11:51:04.369Z,96473.23
2018-12-24T11:53:54.653Z,96476.53
2018-12-24T11:56:44.608Z,96473.53
2018-12-24T11:59:34.074Z,96466.65
2018-12-24T12:02:24.327Z,96474.59
2018-12-24T12:05:13.784Z,96475.82
2018-12-24T12:08:03.552Z,96476.90
2018-12-24T12:11:15.991Z,96471.05
2018-12-24T12:14:06.101Z,96473.78
2018-12-24T12:16:55.903Z,96476.06
2018-12-24T12:19:45.673Z,96479.98
2018-12-24T12:22:54.602Z,96490.55
2018-12-24T12:25:45.181Z,96493.36
2018-12-24T12:28:34.899Z,96488.28
2018-12-24T12:31:25.235Z,96501.39
2018-12-24T12:34:15.028Z,96500.66
2018-12-24T12:37:04.524Z,96507.66
2018-12-24T12:39:53.979Z,96511.05
2018-12-24T12:42:44.240Z,96522.52
2018-12-24T12:45:34.377Z,96521.12
2018-12-24T12:48:25.587Z,96524.73
2018-12-24T12:51:16.315Z,96525.66
2018-12-24T12:54:06.706Z,96534.59
2018-12-24T12:56:56.439Z,96537.83
2018-12-24T12:59:46.640Z,96544.48
2018-12-24T13:02:36.381Z,96549.45
2018-12-24T13:05:26.093Z,96554.96
2018-12-24T13:08:15.837Z,96563.74
2018-12-24T13:11:05.534Z,96564.29
2018-12-24T13:13:55.253Z,96566.55
2018-12-24T13:16:44.717Z,96569.09
2018-12-24T13:19:34.514Z,96573.81
2018-12-24T13:22:24.473Z,96588.53
2018-12-24T13:25:15.716Z,96580.45
2018-12-24T13:28:05.674Z,96591.02
2018-12-24T13:30:55.131Z,96600.36
2018-12-24T13:33:44.603Z,96598.42
2018-12-24T13:36:34.602Z,96604.27
2018-12-24T13:39:24.100Z,96607.08
2018-12-24T13:42:13.771Z,96614.17
2018-12-24T13:45:03.677Z,96617.69
2018-12-24T13:47:53.288Z,96619.28
2018-12-24T13:50:43.054Z,96620.70
2018-12-24T13:53:32.756Z,96633.03
2018-12-24T13:56:22.766Z,96641.70
2018-12-24T13:59:12.446Z,96639.25
2018-12-24T14:02:02.183Z,96643.25
2018-12-24T14:04:52.485Z,96652.97
2018-12-24T14:07:43.060Z,96660.80
2018-12-24T14:10:32.534Z,96662.64
2018-12-24T14:13:22.523Z,96663.70
2018-12-24T14:16:16.742Z,96662.56
2018-12-24T14:19:04.941Z,96671.09
2018-12-24T14:21:54.912Z,96681.43
2018-12-24T14:24:46.483Z,96678.14
2018-12-24T14:27:37.028Z,96686.09
2018-12-24T14:30:26.486Z,96692.53
2018-12-24T14:33:16.225Z,96694.08
2018-12-24T14:36:05.932Z,96702.39
2018-12-24T14:38:55.679Z,96707.06
2018-12-24T14:41:45.624Z,96727.44
2018-12-24T14:44:35.587Z,96717.01
2018-12-24T14:47:26.095Z,96752.59
2018-12-24T14:50:35.855Z,96750.98
2018-12-24T14:53:25.811Z,96750.98
2018-12-24T14:56:15.270Z,96754.05
2018-12-24T14:59:05.564Z,96757.42
2018-12-24T15:01:55.512Z,96754.97
2018-12-24T15:04:45.449Z,96752.77
2018-12-24T15:07:34.905Z,96747.33
2018-12-24T15:10:24.845Z,96752.55
2018-12-24T15:13:14.544Z,96758.48
2018-12-24T15:16:04.314Z,96764.91
2018-12-24T15:18:54.548Z,96758.25
2018-12-24T15:21:44.013Z,96769.19
2018-12-24T15:24:34.605Z,96769.19
2018-12-24T15:27:24.077Z,96771.24
2018-12-24T15:30:14.050Z,96761.34
2018-12-24T15:33:03.754Z,96783.09
2018-12-24T15:35:54.318Z,96785.66
2018-12-24T15:38:44.259Z,96789.58
2018-12-24T15:41:34.668Z,96790.64
2018-12-24T15:44:24.354Z,96790.89
2018-12-24T15:47:14.386Z,96791.36
2018-12-24T15:50:04.153Z,96783.45
2018-12-24T15:52:54.702Z,96791.05
2018-12-24T15:55:44.161Z,96791.54
2018-12-24T15:58:33.629Z,96791.00
2018-12-24T16:01:23.868Z,96802.55
2018-12-24T16:04:13.880Z,96803.17
2018-12-24T16:07:04.043Z,96812.64
2018-12-24T16:10:12.729Z,96819.42
2018-12-24T16:13:02.199Z,96819.42
2018-12-24T16:16:11.645Z,96814.69
2018-12-24T16:19:20.801Z,96819.89
2018-12-24T16:22:10.540Z,96819.89
2018-12-24T16:25:00.358Z,96818.62
2018-12-24T16:27:50.397Z,96829.21
2018-12-24T16:30:59.064Z,96847.91
2018-12-24T16:33:48.770Z,96844.04
2018-12-24T16:36:38.240Z,96848.14
2018-12-24T16:39:28.225Z,96853.82
2018-12-24T16:42:17.944Z,96855.83
2018-12-24T16:45:07.815Z,96859.22
2018-12-24T16:47:57.538Z,96852.66
2018-12-24T16:50:47.046Z,96849.31
2018-12-24T16:53:40.546Z,96850.03
2018-12-24T16:56:28.673Z,96852.84
2018-12-24T16:59:18.389Z,96862.83
2018-12-24T17:02:07.918Z,96866.28
2018-12-24T17:04:57.437Z,96862.94
2018-12-24T17:07:46.911Z,96867.92
2018-12-24T17:10:36.372Z,96872.30
2018-12-24T17:13:45.361Z,96876.45
2018-12-24T17:16:35.587Z,96876.45
2018-12-24T17:19:25.033Z,96884.50
2018-12-24T17:22:14.500Z,96878.93
2018-12-24T17:25:04.290Z,96875.77
2018-12-24T17:27:53.755Z,96872.83
2018-12-24T17:30:43.481Z,96871.38
2018-12-24T17:33:33.240Z,96880.31
2018-12-24T17:36:23.740Z,96877.05
2018-12-24T17:39:15.366Z,96880.41
2018-12-24T17:42:05.169Z,96875.69
2018-12-24T17:44:54.870Z,96880.31
2018-12-24T17:47:45.000Z,96892.28
2018-12-24T17:50:34.477Z,96883.83
2018-12-24T17:53:24.238Z,96885.16
2018-12-24T17:56:14.183Z,96880.19
2018-12-24T17:59:04.222Z,96877.89
2018-12-24T18:01:54.060Z,96873.95
2018-12-24T18:04:43.774Z,96879.39
2018-12-24T18:07:33.504Z,96879.39
2018-12-24T18:10:42.428Z,96890.28
2018-12-24T18:13:51.403Z,96885.88
2018-12-24T18:16:41.538Z,96895.16
2018-12-24T18:19:31.295Z,96895.16
2018-12-24T18:22:40.500Z,96910.48
2018-12-24T18:25:30.224Z,96910.48
2018-12-24T18:28:19.927Z,96900.70
2018-12-24T18:31:10.136Z,96917.52
2018-12-24T18:33:59.611Z,96918.61
2018-12-24T18:36:50.024Z,96925.56
2018-12-24T18:39:39.492Z,96923.48
2018-12-24T18:42:30.053Z,96933.88
2018-12-24T18:45:19.575Z,96937.52
2018-12-24T18:48:09.310Z,96946.19
2018-12-24T18:50:59.036Z,96941.58
2018-12-24T18:53:49.315Z,96953.70
2018-12-24T18:56:39.666Z,96954.34
2018-12-24T18:59:29.137Z,96958.23
2018-12-24T19:02:19.102Z,96965.66
2018-12-24T19:05:09.302Z,96967.80
2018-12-24T19:07:59.018Z,96965.20
2018-12-24T19:10:48.747Z,96968.02
2018-12-24T19:13:38.222Z,96968.34
2018-12-24T19:19:38.597Z,96964.27
2018-12-24T19:22:28.338Z,96960.80
2018-12-24T19:25:17.806Z,96972.91
2018-12-24T19:28:07.772Z,96969.88
2018-12-24T19:30:57.753Z,96969.30
2018-12-24T19:33:47.928Z,96981.02
2018-12-24T19:36:37.391Z,96969.55
2018-12-24T19:39:27.436Z,96982.48
2018-12-24T19:42:16.875Z,96980.05
2018-12-24T19:45:06.877Z,96975.95
2018-12-24T19:47:56.859Z,96982.11
2018-12-24T19:50:46.550Z,96975.14
2018-12-24T19:53:35.999Z,96975.36
2018-12-24T19:56:26.039Z,96978.03
2018-12-24T19:59:15.518Z,96975.46
2018-12-24T20:02:05.284Z,96972.30
2018-12-24T20:04:55.691Z,96979.19
2018-12-24T20:07:45.455Z,96981.89
2018-12-24T20:10:35.430Z,96989.18
2018-12-24T20:13:24.928Z,96999.18
2018-12-24T20:16:14.386Z,97008.45
2018-12-24T20:19:04.081Z,97013.98
2018-12-24T20:21:54.274Z,97016.45
2018-12-24T20:24:44.166Z,97026.53
2018-12-24T20:27:33.887Z,97028.69
2018-12-24T20:30:23.862Z,97044.89
2018-12-24T20:33:13.840Z,97043.96
2018-12-24T20:36:03.335Z,97040.56
2018-12-24T20:38:52.807Z,97047.14
2018-12-24T20:41:42.756Z,97043.16
2018-12-24T20:44:32.858Z,97040.89
2018-12-24T20:47:22.967Z,97045.75
2018-12-24T20:50:12.841Z,97052.08
2018-12-24T20:53:02.781Z,97058.52
2018-12-24T20:55:52.508Z,97061.89
2018-12-24T20:58:42.247Z,97067.86
2018-12-24T21:01:31.790Z,97083.23
2018-12-24T21:04:40.717Z,97085.98
2018-12-24T21:07:30.412Z,97085.98
2018-12-24T21:10:20.232Z,97100.42
2018-12-24T21:13:11.531Z,97096.09
2018-12-24T21:16:00.977Z,97096.66
2018-12-24T21:18:50.431Z,97083.55
2018-12-24T21:21:40.755Z,97085.41
2018-12-24T21:24:30.310Z,97077.33
2018-12-24T21:27:20.022Z,97074.22
2018-12-24T21:30:09.833Z,97074.59
2018-12-24T21:32:59.283Z,97080.88
2018-12-24T21:35:48.751Z,97086.61
2018-12-24T21:38:38.224Z,97085.05
2018-12-24T21:41:47.630Z,97075.37
2018-12-24T21:44:37.899Z,97085.66
2018-12-24T21:47:28.510Z,97097.17
2018-12-24T21:50:37.199Z,97100.70
2018-12-24T21:53:27.432Z,97100.70
2018-12-24T21:56:17.612Z,97103.72
2018-12-24T21:59:07.335Z,97103.52
2018-12-24T22:02:16.758Z,97106.36
2018-12-24T22:05:06.395Z,97096.85
2018-12-24T22:07:56.659Z,97096.85
2018-12-24T22:10:46.127Z,97112.30
2018-12-24T22:13:36.358Z,97112.53
2018-12-24T22:16:25.841Z,97117.42
2018-12-24T22:19:16.018Z,97116.24
2018-12-24T22:22:05.854Z,97109.71
2018-12-24T22:24:55.385Z,97110.42
2018-12-24T22:27:45.432Z,97111.28
2018-12-24T22:30:54.122Z,97112.87
2018-12-24T22:33:44.104Z,97112.87
2018-12-24T22:36:33.575Z,97111.72
2018-12-24T22:39:23.318Z,97111.06
2018-12-24T22:42:13.028Z,97105.10
2018-12-24T22:45:02.809Z,97105.28
2018-12-24T22:47:52.804Z,97106.29
2018-12-24T22:50:42.852Z,97105.27
2018-12-24T22:53:32.814Z,97107.16
2018-12-24T22:56:22.646Z,97103.08
2018-12-24T22:59:12.399Z,97110.02
2018-12-24T23:02:21.413Z,97105.49
2018-12-24T23:05:11.202Z,97105.49
2018-12-24T23:08:00.772Z,97109.61
2018-12-24T23:11:09.707Z,97110.42
2018-12-24T23:13:59.146Z,97110.42
2018-12-24T23:16:48.904Z,97120.56
2018-12-24T23:19:38.647Z,97125.86
2018-12-24T23:22:28.366Z,97132.25
2018-12-24T23:25:17.830Z,97141.80
2018-12-24T23:28:07.315Z,97147.32
2018-12-24T23:30:56.784Z,97144.11
2018-12-24T23:33:46.535Z,97139.81
2018-12-24T23:36:36.509Z,97139.81
2018-12-24T23:39:25.966Z,97141.80
2018-12-24T23:42:16.433Z,97148.04
2018-12-24T23:45:05.983Z,97152.04
2018-12-24T23:47:55.936Z,97157.34
2018-12-24T23:50:45.403Z,97165.00
2018-12-24T23:53:54.887Z,97171.59
2018-12-24T23:56:44.419Z,97171.59
2018-12-24T23:59:34.130Z,97172.71
